Esmeralda — CCES — position and weather

sailwx.info

Track history (hours):
 
Tides and Currents Weather Stations Pressure Air Temp Water Temp Dewpoint Dewpoint Depression Visibility Wind Speed Wind Dir Waves Ship Positions

Esmeralda (Chile)

Last reported at 2017-Apr-19 15:26 UTC. Time now 2017-Apr-25 16:32 UTC.
Position S 33°02' W 071°37'.

Length 113 m; draft 7 m.

Type: Military. MMSI: 725019006.

Date/timePositionNaut miles runAvg speedWind from/ knotsBaromVisibWave heightAir tempDewpointWater temp
2017-Apr-19 15:26S 33°02' W 071°37'0 0.0
2017-Apr-19 14:56S 33°02' W 071°37'0 0.0
2017-Apr-19 14:26S 33°02' W 071°37'0 0.0
2017-Apr-19 12:08S 33°02' W 071°37'0 0.0
2017-Apr-19 11:59S 33°02' W 071°37'0 0.0
2017-Apr-19 11:29S 33°02' W 071°37'  
2017-Apr-13 17:33S 33°02' W 071°37'0 0.7
2017-Apr-13 17:30S 33°02' W 071°37'1 1.5
2017-Apr-13 16:48S 33°01' W 071°37'1 0.9
2017-Apr-13 16:11S 33°00' W 071°38'1 5.6
2017-Apr-13 16:00S 32°59' W 071°38'2 4.7
2017-Apr-13 15:30S 32°57' W 071°37'3 5.8
2017-Apr-13 14:55S 33°01' W 071°36'2 1.8
2017-Apr-13 13:56S 33°01' W 071°34'2 3.1
2017-Apr-13 13:14S 32°59' W 071°34'1 5.8
2017-Apr-13 13:00S 32°60' W 071°34'3 0.2
2017-Apr-12 16:18S 33°02' W 071°37'  
Track history (hours):
 
Tides and Currents Weather Stations Pressure Air Temp Water Temp Dewpoint Dewpoint Depression Visibility Wind Speed Wind Dir Waves Ship Positions

Esmeralda (Chile)

Last reported at 2017-Apr-19 15:26 UTC. Time now 2017-Apr-25 16:32 UTC.
Position S 33°02' W 071°37'.

Length 113 m; draft 7 m.

Type: Military. MMSI: 725019006.

Date/timePositionNaut miles runAvg speedWind from/ knotsBaromVisibWave heightAir tempDewpointWater temp
2017-Apr-19 15:26S 33°02' W 071°37'0 0.0
2017-Apr-19 14:56S 33°02' W 071°37'0 0.0
2017-Apr-19 14:26S 33°02' W 071°37'0 0.0
2017-Apr-19 12:08S 33°02' W 071°37'0 0.0
2017-Apr-19 11:59S 33°02' W 071°37'0 0.0
2017-Apr-19 11:29S 33°02' W 071°37'  
2017-Apr-13 17:33S 33°02' W 071°37'0 0.7
2017-Apr-13 17:30S 33°02' W 071°37'1 1.5
2017-Apr-13 16:48S 33°01' W 071°37'1 0.9
2017-Apr-13 16:11S 33°00' W 071°38'1 5.6
2017-Apr-13 16:00S 32°59' W 071°38'2 4.7
2017-Apr-13 15:30S 32°57' W 071°37'3 5.8
2017-Apr-13 14:55S 33°01' W 071°36'2 1.8
2017-Apr-13 13:56S 33°01' W 071°34'2 3.1
2017-Apr-13 13:14S 32°59' W 071°34'1 5.8
2017-Apr-13 13:00S 32°60' W 071°34'3 0.2
2017-Apr-12 16:18S 33°02' W 071°37'  

Dump ship's entire track history